Time;durP1;ratioP1;P1;durP2;ratioP2;P2;SDS_P1;SDS_P2;PMS_P1;PMS_P2;Temp;Humidity;BMP_temperature;BMP_pressure;BME280_temperature;BME280_humidity;BME280_pressure;Samples;Min_cycle;Max_cycle;Signal;HPM_P1;HPM_P2
2023/03/05 00:01:25;;;;;;;3.57;0.90;;;29.90;99.90;;;;;;5050090;28;20176;-74
2023/03/05 00:03:54;;;;;;;2.60;0.70;;;29.50;99.90;;;;;;5052190;28;20298;-73
2023/03/05 00:06:24;;;;;;;2.87;0.83;;;30.10;99.90;;;;;;5052221;28;20173;-74
2023/03/05 00:08:52;;;;;;;4.30;0.80;;;30.80;99.90;;;;;;5052822;28;20225;-75
2023/03/05 00:11:20;;;;;;;5.00;1.20;;;31.00;99.90;;;;;;5051278;28;20642;-79
2023/03/05 00:13:51;;;;;;;11.03;1.53;;;31.00;99.90;;;;;;5052402;28;20204;-74
2023/03/05 00:16:19;;;;;;;9.57;1.17;;;30.30;99.90;;;;;;5052185;28;20180;-75
2023/03/05 00:18:46;;;;;;;11.30;1.30;;;30.20;99.90;;;;;;5052035;28;20260;-74
2023/03/05 00:21:34;;;;;;;12.37;1.40;;;30.10;99.90;;;;;;5052013;28;20191;-75
2023/03/05 00:24:04;;;;;;;4.30;0.83;;;30.10;99.90;;;;;;5053105;28;20208;-76
2023/03/05 00:26:34;;;;;;;5.97;1.00;;;30.70;99.90;;;;;;5051812;28;20181;-73
2023/03/05 00:29:03;;;;;;;1.70;0.80;;;30.60;99.90;;;;;;5052155;28;20533;-76
2023/03/05 00:31:32;;;;;;;7.45;0.85;;;30.70;99.90;;;;;;5051497;28;20625;-74
2023/03/05 00:34:05;;;;;;;3.13;0.75;;;31.00;99.90;;;;;;5052126;28;20659;-73
2023/03/05 00:36:34;;;;;;;11.15;1.15;;;31.30;99.90;;;;;;5051081;28;20215;-78
2023/03/05 00:39:01;;;;;;;5.63;0.95;;;31.40;99.90;;;;;;5046855;28;20181;-74
2023/03/05 00:41:29;;;;;;;4.30;0.55;;;31.40;99.90;;;;;;5034116;28;20176;-73
2023/03/05 00:43:56;;;;;;;4.72;1.02;;;31.20;99.90;;;;;;5050867;28;20640;-72
2023/03/05 00:46:26;;;;;;;7.22;1.10;;;31.70;99.90;;;;;;5038862;28;20177;-73
2023/03/05 00:48:54;;;;;;;10.50;1.42;;;31.20;99.90;;;;;;5050872;28;20199;-74
2023/03/05 00:51:23;;;;;;;7.95;0.98;;;31.80;99.90;;;;;;5050829;28;20184;-74
2023/03/05 00:53:50;;;;;;;4.18;0.98;;;31.20;99.90;;;;;;5051672;28;20188;-76
2023/03/05 00:56:18;;;;;;;3.40;0.73;;;31.30;99.90;;;;;;5050687;28;20641;-74
2023/03/05 00:58:45;;;;;;;14.50;1.75;;;31.90;99.90;;;;;;5050585;28;20570;-75
2023/03/05 01:01:13;;;;;;;2.03;0.50;;;31.90;99.90;;;;;;5052191;28;20535;-72
2023/03/05 01:03:40;;;;;;;2.25;0.75;;;32.10;99.90;;;;;;5051589;28;20208;-73
2023/03/05 01:06:11;;;;;;;2.97;1.02;;;32.10;99.90;;;;;;5050528;28;20173;-72
2023/03/05 01:08:39;;;;;;;1.15;0.50;;;31.80;99.90;;;;;;5051580;28;20666;-74
2023/03/05 01:11:08;;;;;;;3.35;1.00;;;31.50;99.90;;;;;;5050645;28;20579;-74
2023/03/05 01:13:36;;;;;;;3.38;0.85;;;31.20;99.90;;;;;;5051408;28;20192;-73
2023/03/05 01:16:04;;;;;;;2.50;0.80;;;31.30;99.90;;;;;;5050722;28;20184;-73
2023/03/05 01:18:32;;;;;;;3.75;0.80;;;32.30;99.90;;;;;;5050100;28;20277;-72
2023/03/05 01:20:59;;;;;;;2.45;0.85;;;32.80;99.90;;;;;;5051348;28;20298;-72
2023/03/05 01:23:27;;;;;;;3.85;0.98;;;32.20;99.90;;;;;;5050171;28;20215;-73
2023/03/05 01:25:59;;;;;;;4.47;1.00;;;32.10;99.90;;;;;;5049669;28;20192;-73
2023/03/05 01:28:27;;;;;;;2.80;0.90;;;32.60;99.90;;;;;;5051297;28;20177;-75
2023/03/05 01:30:54;;;;;;;7.13;0.88;;;32.50;99.90;;;;;;5051358;28;20179;-73
2023/03/05 01:33:22;;;;;;;1.42;0.70;;;32.50;99.90;;;;;;5051461;28;20168;-74
2023/03/05 01:35:49;;;;;;;5.05;0.90;;;32.90;99.90;;;;;;5050121;28;20333;-73
2023/03/05 01:38:17;;;;;;;4.95;0.98;;;33.30;99.90;;;;;;5050597;28;20561;-73
2023/03/05 01:40:45;;;;;;;3.40;0.98;;;32.60;99.90;;;;;;5051353;28;20177;-73
2023/03/05 01:43:12;;;;;;;6.43;1.55;;;32.80;99.90;;;;;;5051253;28;20573;-72
2023/03/05 01:46:17;;;;;;;4.18;1.00;;;33.10;99.90;;;;;;5050621;28;20234;-73
2023/03/05 01:48:49;;;;;;;5.18;0.90;;;32.50;99.90;;;;;;5056694;28;20184;-74
2023/03/05 01:51:18;;;;;;;15.02;1.25;;;32.90;99.90;;;;;;5051757;28;20593;-74
2023/03/05 01:53:46;;;;;;;1.98;0.57;;;33.50;99.90;;;;;;5048516;28;20185;-73
2023/03/05 01:56:14;;;;;;;4.07;1.10;;;33.50;98.40;;;;;;5048903;28;20188;-74
2023/03/05 01:58:41;;;;;;;4.50;1.27;;;33.00;99.90;;;;;;5050655;28;20269;-74
2023/03/05 02:01:09;;;;;;;6.65;1.55;;;33.20;99.90;;;;;;5053745;28;20195;-73
2023/03/05 02:03:37;;;;;;;5.85;1.20;;;33.20;99.90;;;;;;5052597;28;20224;-73
2023/03/05 02:06:04;;;;;;;3.53;1.05;;;32.90;98.10;;;;;;5052754;28;20192;-73
2023/03/05 02:08:32;;;;;;;47.38;3.38;;;32.90;96.00;;;;;;5054636;28;20177;-72
2023/03/05 02:11:00;;;;;;;7.07;1.23;;;32.50;99.30;;;;;;5054526;28;20179;-72
2023/03/05 02:13:31;;;;;;;3.00;0.80;;;33.40;99.60;;;;;;5053463;28;20193;-73
2023/03/05 02:16:00;;;;;;;3.30;1.00;;;33.90;97.10;;;;;;5050894;28;20646;-73
2023/03/05 02:18:28;;;;;;;2.85;0.45;;;34.10;97.30;;;;;;5053511;28;20602;-73
2023/03/05 02:21:02;;;;;;;2.03;0.73;;;34.30;95.60;;;;;;5052849;28;20528;-73
2023/03/05 02:23:35;;;;;;;1.75;0.55;;;33.30;97.70;;;;;;5034294;28;20670;-73
2023/03/05 02:26:07;;;;;;;1.52;0.50;;;33.10;96.80;;;;;;5037831;28;20258;-72
2023/03/05 02:28:56;;;;;;;5.60;0.70;;;33.40;95.50;;;;;;5053266;28;20227;-72
2023/03/05 02:31:25;;;;;;;0.80;0.50;;;33.10;96.60;;;;;;5054115;28;20314;-74
2023/03/05 02:33:54;;;;;;;1.75;0.68;;;33.20;97.00;;;;;;5054072;28;20188;-73
2023/03/05 02:36:22;;;;;;;5.63;1.65;;;33.50;97.40;;;;;;5054189;28;20221;-72
2023/03/05 02:38:51;;;;;;;5.35;0.45;;;33.60;98.20;;;;;;5054112;28;20214;-73
2023/03/05 02:41:19;;;;;;;1.70;0.40;;;33.50;97.30;;;;;;5053993;28;20255;-73
2023/03/05 02:43:47;;;;;;;3.50;0.70;;;33.40;93.90;;;;;;5052149;28;20216;-74
2023/03/05 02:46:14;;;;;;;2.72;1.10;;;34.00;99.90;;;;;;5053814;28;20202;-73
2023/03/05 02:48:41;;;;;;;3.70;1.00;;;33.90;93.90;;;;;;5053865;28;20181;-72
2023/03/05 02:51:09;;;;;;;3.67;0.60;;;34.10;94.50;;;;;;5055481;28;20195;-73
2023/03/05 02:53:36;;;;;;;1.10;0.60;;;34.20;93.60;;;;;;5073806;28;20591;-73
2023/03/05 02:56:04;;;;;;;3.47;1.30;;;34.10;93.10;;;;;;5056926;28;20239;-73
2023/03/05 02:58:31;;;;;;;6.07;0.60;;;34.10;95.70;;;;;;5053053;28;20204;-73
2023/03/05 03:00:58;;;;;;;5.78;1.00;;;34.10;92.00;;;;;;5053591;28;20578;-72
2023/03/05 03:03:26;;;;;;;3.78;0.65;;;34.20;93.80;;;;;;5053504;28;20239;-72
2023/03/05 03:05:53;;;;;;;8.23;1.02;;;34.10;93.20;;;;;;5051525;28;20607;-73
2023/03/05 03:08:21;;;;;;;1.55;0.55;;;34.30;91.10;;;;;;5053234;28;20234;-73
2023/03/05 03:10:48;;;;;;;1.95;0.65;;;34.60;90.60;;;;;;5050220;28;20190;-72
2023/03/05 03:13:15;;;;;;;2.35;0.50;;;33.90;89.90;;;;;;5052433;28;20215;-73
2023/03/05 03:15:43;;;;;;;2.83;0.75;;;34.00;93.30;;;;;;5052017;28;20173;-73
2023/03/05 03:18:11;;;;;;;2.28;0.65;;;34.00;94.30;;;;;;5053275;28;20220;-74
2023/03/05 03:20:39;;;;;;;3.10;0.80;;;34.50;93.20;;;;;;5053318;28;20191;-73
2023/03/05 03:23:07;;;;;;;2.10;0.73;;;34.30;91.30;;;;;;5053335;28;20303;-73
2023/03/05 03:25:35;;;;;;;1.77;0.73;;;34.40;90.60;;;;;;5041470;28;20205;-73
2023/03/05 03:28:03;;;;;;;1.13;0.57;;;34.20;94.50;;;;;;5033096;28;20184;-73
2023/03/05 03:30:31;;;;;;;1.35;0.60;;;34.50;91.80;;;;;;5034784;28;20173;-73
2023/03/05 03:32:59;;;;;;;2.75;0.93;;;34.30;90.40;;;;;;5052469;28;20654;-72
2023/03/05 03:35:27;;;;;;;3.03;0.65;;;33.70;91.20;;;;;;5052225;28;20318;-74
2023/03/05 03:37:54;;;;;;;2.70;1.08;;;33.80;93.90;;;;;;5052509;28;20192;-73
2023/03/05 03:40:22;;;;;;;3.05;0.90;;;33.90;94.00;;;;;;5051878;28;20638;-73
2023/03/05 03:42:52;;;;;;;1.88;0.70;;;34.30;91.20;;;;;;5051675;28;20219;-73
2023/03/05 03:45:21;;;;;;;1.85;0.50;;;34.30;92.30;;;;;;5051901;28;20189;-73
2023/03/05 03:47:50;;;;;;;3.00;0.88;;;34.50;91.50;;;;;;5051524;28;20234;-73
2023/03/05 03:50:20;;;;;;;4.32;0.98;;;34.80;91.60;;;;;;5051689;28;20669;-73
2023/03/05 03:52:48;;;;;;;3.13;0.93;;;34.50;92.60;;;;;;5052833;28;20173;-73
2023/03/05 03:55:16;;;;;;;5.13;1.30;;;34.60;91.60;;;;;;5051274;28;20313;-73
2023/03/05 03:57:43;;;;;;;4.25;1.00;;;34.60;93.00;;;;;;5047375;28;20177;-73
2023/03/05 04:00:12;;;;;;;6.18;1.50;;;34.40;90.80;;;;;;5043718;28;20185;-73
2023/03/05 04:02:40;;;;;;;2.38;0.70;;;34.20;92.30;;;;;;5050950;28;20196;-73
2023/03/05 04:05:08;;;;;;;0.95;0.60;;;34.10;92.90;;;;;;5051038;28;20216;-73
2023/03/05 04:07:36;;;;;;;2.17;0.68;;;34.10;92.40;;;;;;5051335;28;20665;-72
2023/03/05 04:10:04;;;;;;;1.73;0.77;;;34.20;92.50;;;;;;5050617;28;20188;-73
2023/03/05 04:12:32;;;;;;;2.20;0.80;;;34.30;92.90;;;;;;5051962;28;20638;-73
2023/03/05 04:15:00;;;;;;;1.33;0.80;;;34.40;92.70;;;;;;5047656;28;20639;-74
2023/03/05 04:17:28;;;;;;;3.55;1.00;;;34.20;91.70;;;;;;5048674;28;20212;-73
2023/03/05 04:19:55;;;;;;;3.85;0.80;;;34.20;92.50;;;;;;5050803;28;20195;-73
2023/03/05 04:22:23;;;;;;;6.47;1.27;;;34.10;94.30;;;;;;5050100;28;20189;-73
2023/03/05 04:24:51;;;;;;;5.68;1.20;;;33.80;93.90;;;;;;5051652;28;20292;-72
2023/03/05 04:27:19;;;;;;;14.82;1.70;;;33.80;95.80;;;;;;5051686;28;20181;-72
2023/03/05 04:29:47;;;;;;;5.72;1.25;;;34.10;94.60;;;;;;5049470;28;20677;-72
2023/03/05 04:32:21;;;;;;;1.77;0.95;;;34.10;94.60;;;;;;5050907;28;20192;-72
2023/03/05 04:34:49;;;;;;;1.77;0.80;;;34.40;95.00;;;;;;5049836;28;20253;-72
2023/03/05 04:37:17;;;;;;;1.75;1.05;;;34.60;95.00;;;;;;5050294;28;20180;-73
2023/03/05 04:39:45;;;;;;;3.40;0.95;;;34.40;92.50;;;;;;5050592;28;20188;-73
2023/03/05 04:42:12;;;;;;;3.75;1.55;;;34.70;92.60;;;;;;5049622;28;20210;-72
2023/03/05 04:44:40;;;;;;;0.98;0.70;;;34.80;92.90;;;;;;5049277;28;20220;-72
2023/03/05 04:47:08;;;;;;;2.03;0.70;;;34.80;92.10;;;;;;5051410;28;20184;-73
2023/03/05 04:49:36;;;;;;;3.85;1.08;;;34.60;92.60;;;;;;5051156;28;20199;-73
2023/03/05 04:52:03;;;;;;;4.22;0.63;;;34.60;92.50;;;;;;5051205;28;20176;-73
2023/03/05 04:54:31;;;;;;;2.20;1.10;;;34.30;93.10;;;;;;5048771;28;20193;-72
2023/03/05 04:56:59;;;;;;;1.20;0.60;;;34.10;96.00;;;;;;5050691;28;20589;-72
2023/03/05 04:59:27;;;;;;;1.95;0.70;;;33.90;95.10;;;;;;5049856;28;20223;-73
2023/03/05 05:01:55;;;;;;;4.53;1.10;;;33.50;95.00;;;;;;5051060;28;20205;-73
2023/03/05 05:04:23;;;;;;;1.35;0.80;;;33.00;96.80;;;;;;5051219;28;20208;-73
2023/03/05 05:06:54;;;;;;;1.20;0.70;;;32.70;98.40;;;;;;5051111;28;20177;-72
2023/03/05 05:09:23;;;;;;;4.50;0.93;;;32.60;99.90;;;;;;5050742;28;20200;-73
2023/03/05 05:11:50;;;;;;;5.25;1.17;;;32.90;99.90;;;;;;5050676;28;20248;-73
2023/03/05 05:14:18;;;;;;;1.52;0.73;;;33.30;99.80;;;;;;5050920;28;20208;-73
2023/03/05 05:16:46;;;;;;;4.88;1.00;;;33.80;99.90;;;;;;5050832;28;20215;-73
2023/03/05 05:19:17;;;;;;;3.20;1.00;;;33.90;97.80;;;;;;5049591;28;20320;-72
2023/03/05 05:21:45;;;;;;;1.52;0.80;;;33.80;96.80;;;;;;5051165;28;20210;-72
2023/03/05 05:24:12;;;;;;;2.30;1.23;;;34.10;98.10;;;;;;5049948;28;20214;-72
2023/03/05 05:26:40;;;;;;;1.98;1.00;;;34.40;95.40;;;;;;5068529;28;20188;-72
2023/03/05 05:29:08;;;;;;;1.80;0.98;;;34.70;96.00;;;;;;5060127;28;20188;-72
2023/03/05 05:31:36;;;;;;;1.90;1.02;;;35.00;94.30;;;;;;5050021;28;20199;-76
2023/03/05 05:34:04;;;;;;;1.40;0.90;;;34.80;91.50;;;;;;5053878;28;20267;-73
2023/03/05 05:36:32;;;;;;;3.25;1.10;;;34.50;94.10;;;;;;5051673;28;20189;-73
2023/03/05 05:38:59;;;;;;;4.57;1.15;;;34.10;95.30;;;;;;5051175;28;20547;-72
2023/03/05 05:41:27;;;;;;;3.22;1.15;;;33.90;96.70;;;;;;5049960;28;20215;-72
2023/03/05 05:43:55;;;;;;;11.35;1.42;;;33.90;97.30;;;;;;5053919;28;20625;-72
2023/03/05 05:46:23;;;;;;;4.97;1.45;;;33.60;99.90;;;;;;5053365;28;20177;-72
2023/03/05 05:48:51;;;;;;;4.07;1.30;;;33.30;99.90;;;;;;5054474;28;20180;-72
2023/03/05 05:51:22;;;;;;;6.57;1.20;;;33.30;99.90;;;;;;5060642;28;20188;-73
2023/03/05 05:53:50;;;;;;;9.48;1.58;;;33.20;99.90;;;;;;5053760;28;20184;-72
2023/03/05 05:56:18;;;;;;;6.80;1.08;;;33.30;99.90;;;;;;5057860;28;20195;-72
2023/03/05 05:58:47;;;;;;;3.53;1.00;;;33.30;99.90;;;;;;5053432;28;20180;-72
2023/03/05 06:01:22;;;;;;;3.17;0.90;;;33.30;99.90;;;;;;5037579;28;20342;-73
2023/03/05 06:03:50;;;;;;;5.03;1.50;;;33.00;99.90;;;;;;5053664;28;20234;-72
2023/03/05 06:06:20;;;;;;;8.85;1.38;;;32.80;99.90;;;;;;5051937;28;20556;-73
2023/03/05 06:08:48;;;;;;;4.55;1.50;;;32.40;99.90;;;;;;5052700;28;20191;-73
2023/03/05 06:11:17;;;;;;;3.47;1.08;;;32.10;99.90;;;;;;5053873;28;20254;-72
2023/03/05 06:13:45;;;;;;;6.72;1.30;;;32.00;99.90;;;;;;5054107;28;20673;-72
2023/03/05 06:16:15;;;;;;;9.52;1.40;;;32.00;99.90;;;;;;5052148;28;20554;-73
2023/03/05 06:18:43;;;;;;;4.05;1.23;;;32.00;99.90;;;;;;5059647;28;20737;-72
2023/03/05 06:21:15;;;;;;;3.10;0.85;;;31.90;99.90;;;;;;5049197;28;20181;-72
2023/03/05 06:23:44;;;;;;;5.80;1.42;;;31.90;99.90;;;;;;5051823;28;20247;-73
2023/03/05 06:26:16;;;;;;;3.78;1.17;;;31.80;99.90;;;;;;5052739;28;20187;-73
2023/03/05 06:28:43;;;;;;;3.90;1.17;;;31.80;99.90;;;;;;5052698;28;20185;-73
2023/03/05 06:31:17;;;;;;;3.53;1.13;;;32.00;99.90;;;;;;5052481;28;20271;-73
2023/03/05 06:33:45;;;;;;;4.05;1.30;;;32.30;99.90;;;;;;5052785;28;20176;-73
2023/03/05 06:36:16;;;;;;;3.80;1.00;;;32.10;99.90;;;;;;5038664;28;20234;-73
2023/03/05 06:38:43;;;;;;;5.55;1.25;;;32.00;99.90;;;;;;5053164;28;20177;-74
2023/03/05 06:41:14;;;;;;;5.90;1.30;;;32.10;99.90;;;;;;5051497;28;20275;-72
2023/03/05 06:43:43;;;;;;;3.95;1.00;;;31.80;99.90;;;;;;5051103;28;20247;-72
2023/03/05 06:46:21;;;;;;;4.83;1.20;;;31.50;99.90;;;;;;5050307;28;20652;-73
2023/03/05 06:48:50;;;;;;;7.43;1.20;;;31.50;99.90;;;;;;5050497;28;20646;-73
2023/03/05 06:51:24;;;;;;;4.80;1.50;;;31.70;99.90;;;;;;5052961;28;20275;-73
2023/03/05 06:53:53;;;;;;;5.13;1.30;;;31.60;99.90;;;;;;5052951;28;20175;-72
2023/03/05 06:56:21;;;;;;;3.87;1.07;;;31.30;99.90;;;;;;5051404;28;20180;-73
2023/03/05 06:58:51;;;;;;;7.40;1.50;;;31.30;99.90;;;;;;5037279;28;20226;-73
2023/03/05 07:01:20;;;;;;;5.57;1.60;;;31.30;99.90;;;;;;5053370;28;20548;-73
2023/03/05 07:03:54;;;;;;;7.70;2.17;;;31.30;99.90;;;;;;5051189;28;20210;-73
2023/03/05 07:06:23;;;;;;;5.57;1.40;;;31.30;99.90;;;;;;5053138;28;20172;-73
2023/03/05 07:08:53;;;;;;;5.65;1.23;;;31.10;99.90;;;;;;5052944;28;20555;-74
2023/03/05 07:11:22;;;;;;;5.33;1.50;;;31.10;99.90;;;;;;5052458;28;20609;-74
2023/03/05 07:13:50;;;;;;;4.40;1.13;;;31.00;99.90;;;;;;5052888;28;20169;-73
2023/03/05 07:16:22;;;;;;;13.20;2.03;;;30.90;99.90;;;;;;5053221;28;20286;-74
2023/03/05 07:18:50;;;;;;;11.68;1.67;;;30.80;99.90;;;;;;5052882;28;20278;-73
2023/03/05 07:21:21;;;;;;;7.83;1.20;;;30.70;99.90;;;;;;5052800;28;20558;-73
2023/03/05 07:23:49;;;;;;;8.00;1.90;;;30.50;99.90;;;;;;5052462;28;20219;-72
2023/03/05 07:26:17;;;;;;;4.53;1.53;;;30.40;99.90;;;;;;5052704;28;20188;-73
2023/03/05 07:28:45;;;;;;;10.37;1.97;;;30.20;99.90;;;;;;5052546;28;20176;-73
2023/03/05 07:31:17;;;;;;;8.50;1.83;;;29.80;99.90;;;;;;5052613;28;20172;-73
2023/03/05 07:33:46;;;;;;;8.17;1.57;;;29.60;99.90;;;;;;5050870;28;20185;-73
2023/03/05 07:36:15;;;;;;;9.87;1.57;;;29.30;99.90;;;;;;5052622;28;20205;-73
2023/03/05 07:38:43;;;;;;;6.83;1.53;;;29.10;99.90;;;;;;5052711;28;20195;-74
2023/03/05 07:41:13;;;;;;;9.13;1.80;;;29.10;99.90;;;;;;5052654;28;20200;-73
2023/03/05 07:43:41;;;;;;;9.63;2.10;;;28.90;99.90;;;;;;5052162;28;20227;-74
2023/03/05 07:46:11;;;;;;;7.63;2.00;;;28.80;99.90;;;;;;5052468;28;20173;-73
2023/03/05 07:48:39;;;;;;;7.77;1.67;;;28.80;99.90;;;;;;5052448;28;20223;-73
2023/03/05 07:51:13;;;;;;;6.13;1.50;;;28.90;99.90;;;;;;5052108;28;20271;-73
2023/03/05 07:53:45;;;;;;;5.03;1.33;;;29.00;99.90;;;;;;5052326;28;20202;-73
2023/03/05 07:56:13;;;;;;;9.97;1.80;;;28.90;99.90;;;;;;5051898;28;20261;-73
2023/03/05 07:58:41;;;;;;;10.57;1.97;;;28.80;99.90;;;;;;5051033;28;20184;-73
2023/03/05 08:01:13;;;;;;;6.30;1.40;;;28.70;99.90;;;;;;5052094;28;20173;-73
2023/03/05 08:03:42;;;;;;;6.13;1.87;;;28.50;99.90;;;;;;5051750;28;20215;-73
2023/03/05 08:06:11;;;;;;;8.63;1.60;;;28.30;99.90;;;;;;5052107;28;20184;-73
2023/03/05 08:08:39;;;;;;;12.40;2.00;;;28.30;99.90;;;;;;5052148;28;20173;-74
2023/03/05 08:11:13;;;;;;;9.07;2.63;;;28.20;99.90;;;;;;5051896;28;20589;-73
2023/03/05 08:13:41;;;;;;;5.87;1.83;;;28.10;99.90;;;;;;5046290;28;20186;-74
2023/03/05 08:16:13;;;;;;;9.27;1.90;;;27.90;99.90;;;;;;5032041;28;20201;-73
2023/03/05 08:18:41;;;;;;;8.10;1.47;;;27.90;99.90;;;;;;5031879;28;20236;-73
2023/03/05 08:21:20;;;;;;;10.27;1.97;;;27.70;99.90;;;;;;5031576;28;20719;-73
2023/03/05 08:23:48;;;;;;;10.80;2.13;;;27.60;99.90;;;;;;5050298;28;20226;-74
2023/03/05 08:26:21;;;;;;;7.40;1.77;;;27.60;99.90;;;;;;5037208;28;20185;-73
2023/03/05 08:28:50;;;;;;;7.53;1.73;;;27.40;99.90;;;;;;5031710;28;20181;-73
2023/03/05 08:31:20;;;;;;;8.17;1.60;;;27.30;99.90;;;;;;5031763;28;20548;-73
2023/03/05 08:33:49;;;;;;;7.23;1.80;;;27.20;99.90;;;;;;5035665;28;20200;-73
2023/03/05 08:36:17;;;;;;;8.23;1.67;;;27.20;99.90;;;;;;5050803;28;20259;-73
2023/03/05 08:38:47;;;;;;;7.43;1.30;;;27.10;99.90;;;;;;5035800;28;20662;-73
2023/03/05 08:41:17;;;;;;;8.07;2.13;;;27.00;99.90;;;;;;5044109;28;20195;-72
2023/03/05 08:43:44;;;;;;;13.77;1.80;;;26.90;99.90;;;;;;5037355;28;20301;-73
2023/03/05 08:46:13;;;;;;;6.27;1.60;;;26.80;99.90;;;;;;5051273;28;20294;-72
2023/03/05 08:48:41;;;;;;;6.17;1.40;;;26.70;99.90;;;;;;5051105;28;20188;-73
2023/03/05 08:51:12;;;;;;;12.20;2.10;;;26.60;99.90;;;;;;5051397;28;20662;-72
2023/03/05 08:53:41;;;;;;;7.63;1.73;;;26.60;99.90;;;;;;5051899;28;20251;-72
2023/03/05 08:56:10;;;;;;;10.77;1.73;;;26.60;99.90;;;;;;5051926;28;20177;-72
2023/03/05 08:58:38;;;;;;;12.13;1.87;;;26.50;99.90;;;;;;5049343;28;20188;-72
2023/03/05 09:01:07;;;;;;;9.23;2.43;;;26.50;99.90;;;;;;5053687;28;20184;-72
2023/03/05 09:03:34;;;;;;;11.53;2.20;;;26.40;99.90;;;;;;5052914;28;20208;-73
2023/03/05 09:06:05;;;;;;;7.17;3.10;;;26.40;99.90;;;;;;5047415;28;20201;-72
2023/03/05 09:08:34;;;;;;;8.10;2.23;;;26.30;99.90;;;;;;5049996;28;20267;-73
2023/03/05 09:11:08;;;;;;;7.20;1.90;;;26.20;99.90;;;;;;5056070;28;20184;-73
2023/03/05 09:13:36;;;;;;;8.17;1.97;;;26.20;99.90;;;;;;5056383;28;20191;-72
2023/03/05 09:16:10;;;;;;;12.20;1.93;;;26.10;99.90;;;;;;5055726;28;20185;-72
2023/03/05 09:18:39;;;;;;;10.20;2.53;;;26.10;99.90;;;;;;5056288;28;20708;-72
2023/03/05 09:21:15;;;;;;;6.30;1.67;;;26.00;99.90;;;;;;5056110;28;20180;-73
2023/03/05 09:23:45;;;;;;;12.93;2.53;;;25.90;99.90;;;;;;5055360;28;20711;-73
2023/03/05 09:26:17;;;;;;;7.97;2.27;;;25.90;99.90;;;;;;5056460;28;20219;-72
2023/03/05 09:28:46;;;;;;;9.07;3.43;;;25.80;99.90;;;;;;5056204;28;20581;-72
2023/03/05 09:31:14;;;;;;;9.83;3.50;;;25.80;99.90;;;;;;5056326;28;20210;-72
2023/03/05 09:33:47;;;;;;;6.50;2.60;;;25.80;99.90;;;;;;5056081;28;20288;-71
2023/03/05 09:36:23;;;;;;;7.30;2.37;;;25.80;99.90;;;;;;5056296;28;20592;-72
2023/03/05 09:38:51;;;;;;;10.23;2.20;;;25.70;99.90;;;;;;5056068;28;20168;-73
2023/03/05 09:41:32;;;;;;;5.53;2.63;;;25.60;99.90;;;;;;5055832;28;20203;-73
2023/03/05 09:44:23;;;;;;;9.23;2.10;;;25.60;99.90;;;;;;5055616;28;20274;-73
2023/03/05 09:47:28;;;;;;;7.70;2.40;;;25.50;99.90;;;;;;5056169;28;20226;-72
2023/03/05 09:50:13;;;;;;;8.27;2.17;;;25.40;99.90;;;;;;5055478;28;20226;-73
2023/03/05 09:53:07;;;;;;;9.77;2.00;;;25.40;99.90;;;;;;5056027;28;20172;-72
2023/03/05 09:55:44;;;;;;;6.60;2.10;;;25.30;99.90;;;;;;5051479;28;20298;-73
2023/03/05 09:58:15;;;;;;;12.00;1.50;;;25.20;99.90;;;;;;5055340;28;20176;-72
2023/03/05 10:00:46;;;;;;;6.63;1.90;;;25.20;99.90;;;;;;5055879;28;20169;-73
2023/03/05 10:03:35;;;;;;;8.20;3.13;;;25.10;99.90;;;;;;5055554;28;20180;-72
2023/03/05 10:06:20;;;;;;;9.10;2.40;;;25.20;99.90;;;;;;5055157;28;20188;-72
2023/03/05 10:09:09;;;;;;;7.70;2.33;;;25.20;99.90;;;;;;5055679;28;20173;-73
2023/03/05 10:11:45;;;;;;;7.93;2.90;;;25.20;99.90;;;;;;5055543;28;20268;-72
2023/03/05 10:14:28;;;;;;;10.00;2.10;;;25.10;99.90;;;;;;5055385;28;20169;-73
2023/03/05 10:17:32;;;;;;;8.67;2.33;;;25.00;99.90;;;;;;5055397;28;20172;-73
2023/03/05 10:20:37;;;;;;;12.93;2.27;;;24.80;99.90;;;;;;5054873;28;20229;-73
2023/03/05 10:23:29;;;;;;;16.37;2.30;;;24.80;99.90;;;;;;5054832;28;20230;-73
2023/03/05 10:25:59;;;;;;;8.97;2.07;;;24.70;99.90;;;;;;5055186;28;20642;-72
2023/03/05 10:28:35;;;;;;;8.63;1.80;;;24.70;99.90;;;;;;5055313;28;20183;-73
2023/03/05 10:31:24;;;;;;;9.50;2.40;;;24.70;99.90;;;;;;5053716;28;20180;-73
2023/03/05 10:34:12;;;;;;;7.90;2.43;;;24.60;99.90;;;;;;5054076;28;20255;-73
2023/03/05 10:40:20;;;;;;;9.53;2.67;;;24.70;99.90;;;;;;5054085;28;20538;-73
2023/03/05 10:42:48;;;;;;;11.67;2.03;;;24.60;99.90;;;;;;5055215;28;20184;-72
2023/03/05 10:45:25;;;;;;;16.30;1.90;;;24.60;99.90;;;;;;5053422;28;20243;-73
2023/03/05 10:47:56;;;;;;;12.10;2.13;;;24.60;99.90;;;;;;5054811;28;20168;-73
2023/03/05 10:50:35;;;;;;;9.40;2.30;;;24.50;99.90;;;;;;5054832;28;20666;-73
2023/03/05 10:53:18;;;;;;;9.30;1.73;;;24.40;99.90;;;;;;5054836;28;20179;-72
2023/03/05 10:55:46;;;;;;;6.90;1.30;;;24.30;99.90;;;;;;5054651;28;20227;-72
2023/03/05 10:58:16;;;;;;;4.13;1.53;;;24.30;99.90;;;;;;5054260;28;20185;-73
2023/03/05 11:01:14;;;;;;;5.03;1.43;;;24.20;99.90;;;;;;5054282;28;20224;-73
2023/03/05 11:03:47;;;;;;;6.30;1.50;;;24.10;99.90;;;;;;5046189;28;20311;-73
2023/03/05 11:06:15;;;;;;;7.53;2.10;;;24.00;99.90;;;;;;5054419;28;20169;-73
2023/03/05 11:08:43;;;;;;;4.97;1.90;;;23.90;99.90;;;;;;5054208;28;20264;-72
2023/03/05 11:11:14;;;;;;;8.97;2.57;;;23.90;99.90;;;;;;5054805;28;20187;-73
2023/03/05 11:14:02;;;;;;;7.87;1.90;;;23.90;99.90;;;;;;5054189;28;20188;-73
2023/03/05 11:16:46;;;;;;;6.73;1.97;;;23.90;99.90;;;;;;5054306;28;20188;-72
2023/03/05 11:19:23;;;;;;;7.93;2.17;;;23.80;99.90;;;;;;5053938;28;20254;-73
2023/03/05 11:22:10;;;;;;;9.37;2.63;;;23.80;99.90;;;;;;5054310;28;20216;-72
2023/03/05 11:24:40;;;;;;;9.17;3.07;;;23.80;99.90;;;;;;5054024;28;20206;-73
2023/03/05 11:27:31;;;;;;;10.60;2.53;;;23.80;99.90;;;;;;5054191;28;20180;-72
2023/03/05 11:29:59;;;;;;;9.67;3.13;;;23.90;99.90;;;;;;5051696;28;20188;-72
2023/03/05 11:32:30;;;;;;;14.33;3.00;;;24.10;99.90;;;;;;5054080;28;20187;-72
2023/03/05 11:34:58;;;;;;;10.07;2.07;;;24.10;99.90;;;;;;5054106;28;20172;-72
2023/03/05 11:37:32;;;;;;;9.27;2.10;;;24.00;99.90;;;;;;5054027;28;20174;-72
2023/03/05 11:40:21;;;;;;;4.73;1.73;;;24.00;99.90;;;;;;5053462;28;20188;-72
2023/03/05 11:42:56;;;;;;;7.50;1.73;;;24.00;99.90;;;;;;5054311;28;20630;-72
2023/03/05 11:45:26;;;;;;;9.60;2.93;;;24.30;99.90;;;;;;5053666;28;20261;-72
2023/03/05 11:47:59;;;;;;;18.20;2.37;;;24.50;99.90;;;;;;5054143;28;20537;-72
2023/03/05 11:50:30;;;;;;;10.47;2.10;;;24.50;99.90;;;;;;5053918;28;20226;-73
2023/03/05 11:53:11;;;;;;;7.23;1.93;;;24.50;99.90;;;;;;5054194;28;20169;-72
2023/03/05 11:59:07;;;;;;;10.70;2.00;;;24.50;99.90;;;;;;5059272;28;20200;-72
2023/03/05 12:01:56;;;;;;;10.50;1.90;;;24.50;99.90;;;;;;5040837;28;20204;-73
2023/03/05 12:04:25;;;;;;;7.10;1.70;;;24.40;99.90;;;;;;5050840;28;20614;-73
2023/03/05 12:07:02;;;;;;;15.50;2.07;;;24.50;99.90;;;;;;5053526;28;20188;-73
2023/03/05 12:09:46;;;;;;;13.37;2.80;;;24.50;99.90;;;;;;5051093;28;20188;-72
2023/03/05 12:12:35;;;;;;;6.63;1.63;;;24.50;99.90;;;;;;5050383;28;20189;-73
2023/03/05 12:15:26;;;;;;;10.43;2.03;;;24.50;99.90;;;;;;5051308;28;20184;-72
2023/03/05 12:18:09;;;;;;;10.23;2.20;;;24.40;99.90;;;;;;5051400;28;20243;-72
2023/03/05 12:21:07;;;;;;;7.00;2.10;;;24.40;99.90;;;;;;5059176;28;20196;-73
2023/03/05 12:23:53;;;;;;;9.03;1.97;;;24.40;99.90;;;;;;5045026;28;20694;-72
2023/03/05 12:26:54;;;;;;;8.67;2.40;;;24.40;99.90;;;;;;5052199;28;20207;-73
2023/03/05 12:29:39;;;;;;;11.43;2.37;;;24.40;99.90;;;;;;5041465;28;20184;-73
2023/03/05 12:32:31;;;;;;;11.43;2.37;;;24.40;99.90;;;;;;5048708;28;20183;-72
2023/03/05 12:35:00;;;;;;;9.07;1.60;;;24.40;99.90;;;;;;5050015;28;20188;-73
2023/03/05 12:37:28;;;;;;;12.37;2.00;;;24.40;99.90;;;;;;5051894;28;20192;-72
2023/03/05 12:40:19;;;;;;;7.57;1.90;;;24.30;99.90;;;;;;5050891;28;20185;-72
2023/03/05 12:42:53;;;;;;;9.47;1.97;;;24.20;99.90;;;;;;5051742;28;20279;-72
2023/03/05 12:45:41;;;;;;;8.27;2.40;;;24.10;99.90;;;;;;5048557;28;20271;-72
2023/03/05 12:48:12;;;;;;;10.27;2.40;;;24.00;99.90;;;;;;5051851;28;20183;-72
2023/03/05 12:50:39;;;;;;;8.40;2.20;;;24.10;99.90;;;;;;5048338;28;20184;-72
2023/03/05 12:53:10;;;;;;;8.57;1.97;;;24.00;99.90;;;;;;5046583;28;20559;-72
2023/03/05 12:55:49;;;;;;;5.87;1.90;;;23.90;99.90;;;;;;5047705;28;20183;-72
2023/03/05 12:58:18;;;;;;;8.80;2.33;;;23.80;99.90;;;;;;5052939;28;20222;-72
2023/03/05 13:01:02;;;;;;;8.03;2.30;;;23.90;99.90;;;;;;5050231;28;20195;-72
2023/03/05 13:03:34;;;;;;;11.33;1.90;;;23.90;99.90;;;;;;5051051;28;20212;-73
2023/03/05 13:06:06;;;;;;;6.17;1.80;;;23.90;99.90;;;;;;5050591;28;20588;-72
2023/03/05 13:08:36;;;;;;;7.30;1.90;;;24.00;99.90;;;;;;5050285;28;20188;-72
2023/03/05 13:11:36;;;;;;;10.47;1.70;;;24.10;99.90;;;;;;5048853;28;20189;-73
2023/03/05 13:14:04;;;;;;;6.17;1.70;;;24.10;99.90;;;;;;5024903;28;20254;-72
2023/03/05 13:16:38;;;;;;;8.47;2.23;;;24.10;99.90;;;;;;5048506;28;20211;-72